createdAt,value
2017-05-27T00:00:57.105Z,15.74
2017-05-27T00:01:56.828Z,15.8
2017-05-27T00:02:56.848Z,15.78
2017-05-27T00:03:56.874Z,15.78
2017-05-27T00:04:56.898Z,15.78
2017-05-27T00:05:56.923Z,15.74
2017-05-27T00:06:56.945Z,15.71
2017-05-27T00:08:11.890Z,15.62
2017-05-27T00:08:57.001Z,15.68
2017-05-27T00:09:57.330Z,15.69
2017-05-27T00:10:57.351Z,15.74
2017-05-27T00:12:11.987Z,15.68
2017-05-27T00:12:57.413Z,15.68
2017-05-27T00:13:57.422Z,15.72
2017-05-27T00:14:57.446Z,15.59
2017-05-27T00:15:57.468Z,15.67
2017-05-27T00:16:57.493Z,15.59
2017-05-27T00:17:57.517Z,15.57
2017-05-27T00:18:57.541Z,15.51
2017-05-27T00:19:57.567Z,15.59
2017-05-27T00:20:57.587Z,15.57
2017-05-27T00:21:57.614Z,15.59
2017-05-27T00:22:57.639Z,15.57
2017-05-27T00:24:11.976Z,15.57
2017-05-27T00:24:57.687Z,15.56
2017-05-27T00:25:57.713Z,15.57
2017-05-27T00:26:57.735Z,15.54
2017-05-27T00:27:57.768Z,15.51
2017-05-27T00:28:57.832Z,15.54
2017-05-27T00:29:57.856Z,15.47
2017-05-27T00:30:57.830Z,15.6
2017-05-27T00:32:12.479Z,15.47
2017-05-27T00:32:57.879Z,15.49
2017-05-27T00:33:57.902Z,15.47
2017-05-27T00:34:57.927Z,15.5
2017-05-27T00:35:57.952Z,15.43
2017-05-27T00:36:57.978Z,15.46
2017-05-27T00:37:57.999Z,15.35
2017-05-27T00:38:58.026Z,15.31
2017-05-27T00:39:58.047Z,15.32
2017-05-27T00:41:12.689Z,15.29
2017-05-27T00:41:58.098Z,15.29
2017-05-27T00:42:58.120Z,15.32
2017-05-27T00:44:12.760Z,15.19
2017-05-27T00:44:58.174Z,15.27
2017-05-27T00:45:58.192Z,15.27
2017-05-27T00:46:58.216Z,15.16
2017-05-27T00:47:57.992Z,15.19
2017-05-27T00:48:58.268Z,15.23
2017-05-27T00:49:57.985Z,15.09
2017-05-27T00:50:58.010Z,15.11
2017-05-27T00:51:58.399Z,15.11
2017-05-27T00:52:58.412Z,15.11
2017-05-27T00:53:58.386Z,15.11
2017-05-27T00:55:13.027Z,15.02
2017-05-27T00:55:58.433Z,14.98
2017-05-27T00:57:13.073Z,15.01
2017-05-27T00:57:58.482Z,14.99
2017-05-27T00:58:58.256Z,14.98
2017-05-27T01:00:12.843Z,14.99
2017-05-27T01:00:58.553Z,14.94
2017-05-27T01:01:58.275Z,14.91
2017-05-27T01:03:58.681Z,14.89
2017-05-27T01:04:58.650Z,14.86
2017-05-27T01:07:58.420Z,14.73
2017-05-27T01:08:58.748Z,14.7
2017-05-27T01:10:13.388Z,14.65
2017-05-27T01:10:58.794Z,14.72
2017-05-27T01:11:58.517Z,14.61
2017-05-27T01:12:58.843Z,14.64
2017-05-27T01:13:58.868Z,14.62
2017-05-27T01:14:58.890Z,14.61
2017-05-27T01:16:13.527Z,14.5
2017-05-27T01:16:58.940Z,14.51
2017-05-27T01:17:58.719Z,14.5
2017-05-27T01:18:58.994Z,14.52
2017-05-27T01:19:59.012Z,14.46
2017-05-27T01:20:59.029Z,14.43
2017-05-27T01:21:59.055Z,14.4
2017-05-27T01:22:59.080Z,14.37
2017-05-27T01:23:59.112Z,14.24
2017-05-27T01:25:59.151Z,14.18
2017-05-27T01:26:59.175Z,14.17
2017-05-27T01:27:59.199Z,14.24
2017-05-27T01:28:59.224Z,14.25
2017-05-27T01:29:59.250Z,14.14
2017-05-27T01:30:59.269Z,14.14
2017-05-27T01:32:13.911Z,14.17
2017-05-27T01:32:59.321Z,14.14
2017-05-27T01:33:59.342Z,14.09
2017-05-27T01:34:59.370Z,14.18
2017-05-27T01:35:59.440Z,14.09
2017-05-27T01:36:59.111Z,14.14
2017-05-27T01:37:59.436Z,14.18
2017-05-27T01:39:59.486Z,14.1
2017-05-27T01:42:59.556Z,14.2
2017-05-27T01:43:59.275Z,14.03
2017-05-27T01:45:14.219Z,14.14
2017-05-27T01:45:59.627Z,14.15
2017-05-27T01:47:14.268Z,14.14
2017-05-27T01:47:59.681Z,14.12
2017-05-27T01:48:59.700Z,13.96
2017-05-27T01:49:59.724Z,14.06
2017-05-27T01:50:59.746Z,14.06
2017-05-27T01:51:59.769Z,14.04
2017-05-27T01:52:59.797Z,14.06
2017-05-27T01:54:59.842Z,13.85
2017-05-27T01:55:59.863Z,13.88
2017-05-27T01:56:59.891Z,13.88
2017-05-27T01:57:59.910Z,13.75
2017-05-27T01:58:59.938Z,13.7
2017-05-27T01:59:59.962Z,13.63
2017-05-27T02:00:59.984Z,13.66
2017-05-27T02:02:00.007Z,13.64
2017-05-27T02:03:00.034Z,13.62
2017-05-27T02:04:00.131Z,13.55
2017-05-27T02:05:00.078Z,13.67
2017-05-27T02:06:00.103Z,13.62
2017-05-27T02:07:00.124Z,13.6
2017-05-27T02:08:00.150Z,13.57
2017-05-27T02:09:00.176Z,13.49
2017-05-27T02:10:00.198Z,13.51
2017-05-27T02:10:59.914Z,13.54
2017-05-27T02:12:00.296Z,13.46
2017-05-27T02:13:00.269Z,13.49
2017-05-27T02:14:14.906Z,13.51
2017-05-27T02:15:14.928Z,13.48
2017-05-27T02:16:00.336Z,13.48
2017-05-27T02:17:00.367Z,13.42
2017-05-27T02:18:00.389Z,13.3
2017-05-27T02:19:15.022Z,13.2
2017-05-27T02:20:00.433Z,13.2
2017-05-27T02:21:00.454Z,13.32
2017-05-27T02:22:00.224Z,13.26
2017-05-27T02:23:00.500Z,13.33
2017-05-27T02:25:00.555Z,13.2
2017-05-27T02:26:00.274Z,13.26
2017-05-27T02:26:59.989Z,13.19
2017-05-27T02:28:00.314Z,13.14
2017-05-27T02:29:14.955Z,13.15
2017-05-27T02:30:00.369Z,13.08
2017-05-27T02:31:15.304Z,13.04
2017-05-27T02:32:00.714Z,13.04
2017-05-27T02:33:00.432Z,13.05
2017-05-27T02:34:00.454Z,13.07
2017-05-27T02:35:15.398Z,12.96
2017-05-27T02:36:00.500Z,12.96
2017-05-27T02:37:00.831Z,13.03
2017-05-27T02:38:00.851Z,13.05
2017-05-27T02:39:00.572Z,13.08
2017-05-27T02:40:00.594Z,12.96
2017-05-27T02:41:00.923Z,13.05
2017-05-27T02:43:00.970Z,12.95
2017-05-27T02:44:00.991Z,12.93
2017-05-27T02:45:15.329Z,12.93
2017-05-27T02:46:01.036Z,12.92
2017-05-27T02:47:15.678Z,12.92
2017-05-27T02:48:01.083Z,12.86
2017-05-27T02:49:01.114Z,12.83
2017-05-27T02:50:01.136Z,12.82
2017-05-27T02:51:15.771Z,12.82
2017-05-27T02:52:01.230Z,12.83
2017-05-27T02:54:01.228Z,12.74
2017-05-27T02:55:01.249Z,12.71
2017-05-27T02:56:00.971Z,12.77
2017-05-27T02:57:01.297Z,12.78
2017-05-27T02:58:01.316Z,12.82
2017-05-27T02:59:01.341Z,12.79
2017-05-27T03:00:01.365Z,12.89
2017-05-27T03:01:01.133Z,12.87
2017-05-27T03:02:01.104Z,12.89
2017-05-27T03:03:01.433Z,12.86
2017-05-27T03:04:01.454Z,12.85
2017-05-27T03:05:01.477Z,12.85
2017-05-27T03:06:01.501Z,12.82
2017-05-27T03:07:16.143Z,12.82
2017-05-27T03:08:01.547Z,12.82
2017-05-27T03:09:01.571Z,12.86
2017-05-27T03:10:01.594Z,12.93
2017-05-27T03:11:01.617Z,12.9
2017-05-27T03:12:01.641Z,12.89
2017-05-27T03:13:01.668Z,12.92
2017-05-27T03:14:01.688Z,12.93
2017-05-27T03:15:16.332Z,12.92
2017-05-27T03:16:01.737Z,12.85
2017-05-27T03:17:01.757Z,12.85
2017-05-27T03:18:01.787Z,12.77
2017-05-27T03:19:01.802Z,12.9
2017-05-27T03:20:16.443Z,12.89
2017-05-27T03:21:01.851Z,12.87
2017-05-27T03:22:16.493Z,12.89
2017-05-27T03:23:01.898Z,12.92
2017-05-27T03:24:01.920Z,12.92
2017-05-27T03:25:01.943Z,12.93
2017-05-27T03:26:01.966Z,12.87
2017-05-27T03:27:01.991Z,12.93
2017-05-27T03:28:02.015Z,12.96
2017-05-27T03:29:01.733Z,13
2017-05-27T03:30:16.728Z,13.03
2017-05-27T03:32:02.105Z,13.14
2017-05-27T03:33:02.132Z,13.14
2017-05-27T03:34:01.850Z,13.15
2017-05-27T03:35:16.791Z,13.2
2017-05-27T03:36:02.198Z,13.17
2017-05-27T03:37:02.229Z,13.2
2017-05-27T03:38:02.250Z,13.22
2017-05-27T03:39:02.271Z,13.29
2017-05-27T03:40:02.292Z,13.19
2017-05-27T03:41:02.317Z,13.36
2017-05-27T03:42:02.338Z,13.29
2017-05-27T03:43:02.363Z,13.45
2017-05-27T03:44:02.389Z,13.33
2017-05-27T03:45:02.409Z,13.39
2017-05-27T03:46:02.429Z,13.41
2017-05-27T03:47:02.455Z,13.39
2017-05-27T03:48:02.476Z,13.46
2017-05-27T03:49:02.551Z,13.45
2017-05-27T03:50:17.140Z,13.49
2017-05-27T03:51:17.161Z,13.51
2017-05-27T03:52:02.265Z,13.49
2017-05-27T03:53:02.591Z,13.54
2017-05-27T03:54:17.233Z,13.55
2017-05-27T03:55:02.341Z,13.57
2017-05-27T03:56:02.662Z,13.63
2017-05-27T03:57:02.685Z,13.62
2017-05-27T03:58:02.708Z,13.62
2017-05-27T03:59:02.733Z,13.59
2017-05-27T04:02:02.802Z,13.79
2017-05-27T04:03:02.830Z,13.88
2017-05-27T04:04:02.852Z,13.96
2017-05-27T04:05:02.880Z,14.02
2017-05-27T04:06:17.513Z,14.06
2017-05-27T04:07:02.616Z,14.1
2017-05-27T04:08:17.559Z,14.07
2017-05-27T04:09:02.359Z,14.1
2017-05-27T04:10:17.607Z,14.35
2017-05-27T04:11:03.020Z,14.6
2017-05-27T04:12:02.734Z,14.75
2017-05-27T04:13:03.064Z,14.98
2017-05-27T04:14:03.085Z,15.11
2017-05-27T04:15:03.108Z,14.99
2017-05-27T04:16:03.137Z,14.95
2017-05-27T04:17:02.855Z,15.03
2017-05-27T04:18:03.184Z,14.98
2017-05-27T04:19:03.204Z,14.99
2017-05-27T04:20:03.229Z,14.95
2017-05-27T04:21:03.252Z,14.92
2017-05-27T04:22:03.278Z,14.91
2017-05-27T04:23:03.303Z,14.89
2017-05-27T04:24:03.326Z,14.91
2017-05-27T04:25:03.349Z,14.94
2017-05-27T04:26:17.989Z,14.95
2017-05-27T04:27:03.094Z,14.94
2017-05-27T04:28:03.118Z,14.91
2017-05-27T04:29:03.444Z,14.96
2017-05-27T04:30:03.468Z,14.94
2017-05-27T04:31:03.492Z,14.99
2017-05-27T04:32:03.515Z,15.07
2017-05-27T04:33:03.540Z,15.19
2017-05-27T04:34:03.564Z,15.57
2017-05-27T04:35:03.593Z,16.33
2017-05-27T04:36:03.618Z,17.44
2017-05-27T04:37:03.638Z,18.58
2017-05-27T04:38:18.279Z,19.83
2017-05-27T04:39:03.688Z,20.48
2017-05-27T04:40:03.409Z,21.07
2017-05-27T04:41:03.740Z,21.65
2017-05-27T04:42:18.381Z,22.49
2017-05-27T04:43:03.810Z,22.72
2017-05-27T04:44:03.817Z,23.07
2017-05-27T04:45:03.845Z,23.79
2017-05-27T04:46:03.872Z,23.94
2017-05-27T04:47:03.899Z,24.34
2017-05-27T04:48:03.634Z,24.61
2017-05-27T04:49:03.958Z,24.67
2017-05-27T04:50:03.987Z,24.62
2017-05-27T04:51:03.713Z,25.18
2017-05-27T04:53:04.080Z,26.48
2017-05-27T04:54:04.102Z,26.65
2017-05-27T04:55:04.133Z,26.97
2017-05-27T04:56:04.170Z,27.07
2017-05-27T04:57:18.816Z,27.66
2017-05-27T04:58:04.233Z,27.82
2017-05-27T04:59:04.261Z,27.57
2017-05-27T05:00:04.293Z,27.82
2017-05-27T05:01:04.022Z,28.18
2017-05-27T05:02:04.359Z,28.06
2017-05-27T05:03:04.389Z,28.09
2017-05-27T05:04:04.420Z,28.22
2017-05-27T05:05:04.453Z,28.64
2017-05-27T05:06:04.493Z,28.36
2017-05-27T05:07:04.531Z,28.33
2017-05-27T05:08:04.555Z,28.55
2017-05-27T05:09:18.903Z,28.41
2017-05-27T05:10:19.240Z,28.7
2017-05-27T05:11:04.657Z,28.78
2017-05-27T05:12:04.690Z,28.83
2017-05-27T05:13:04.728Z,29.15
2017-05-27T05:14:04.763Z,29.68
2017-05-27T05:15:04.794Z,29.6
2017-05-27T05:16:04.530Z,29.52
2017-05-27T05:17:04.571Z,29.52
2017-05-27T05:18:04.898Z,30
2017-05-27T05:19:04.980Z,30.31
2017-05-27T05:20:04.964Z,30.73
2017-05-27T05:22:05.036Z,30.98
2017-05-27T05:23:05.073Z,31.31
2017-05-27T05:24:05.107Z,31.19
2017-05-27T05:25:04.837Z,31.25
2017-05-27T05:26:19.797Z,31.54
2017-05-27T05:27:05.218Z,31.56
2017-05-27T05:28:05.248Z,30.91
2017-05-27T05:29:19.602Z,31.19
2017-05-27T05:30:05.322Z,31.13
2017-05-27T05:31:05.369Z,31.66
2017-05-27T05:32:05.397Z,31.88
2017-05-27T05:33:05.432Z,32.01
2017-05-27T05:34:05.478Z,32.25
2017-05-27T05:35:05.198Z,31.85
2017-05-27T05:36:05.597Z,32.11
2017-05-27T05:37:05.576Z,31.88
2017-05-27T05:38:05.616Z,32.06
2017-05-27T05:39:05.651Z,32.59
2017-05-27T05:40:05.683Z,32.63
2017-05-27T05:41:05.971Z,32.25
2017-05-27T05:42:20.376Z,32.13
2017-05-27T05:43:05.799Z,32.19
2017-05-27T05:44:05.833Z,31.86
2017-05-27T05:45:20.487Z,32.04
2017-05-27T05:46:05.954Z,32.19
2017-05-27T05:47:05.942Z,32.38
2017-05-27T05:48:05.981Z,32.6
2017-05-27T05:49:06.020Z,32.7
2017-05-27T05:50:05.749Z,32.32
2017-05-27T05:51:05.790Z,32.15
2017-05-27T05:52:05.827Z,32.45
2017-05-27T05:53:05.920Z,32.85
2017-05-27T05:54:05.911Z,32.65
2017-05-27T05:55:05.935Z,32.97
2017-05-27T05:56:05.973Z,32.92
2017-05-27T05:57:20.934Z,32.84
2017-05-27T05:58:06.048Z,32.21
2017-05-27T05:59:06.087Z,32.65
2017-05-27T06:00:06.430Z,33.03
2017-05-27T06:01:21.084Z,33.21
2017-05-27T06:02:06.501Z,33.66
2017-05-27T06:03:06.234Z,33.79
2017-05-27T06:04:06.273Z,34.12
2017-05-27T06:05:06.311Z,33.98
2017-05-27T06:06:06.653Z,33.59
2017-05-27T06:07:06.387Z,34.31
2017-05-27T06:08:06.734Z,34.09
2017-05-27T06:09:06.769Z,33.06
2017-05-27T06:10:06.807Z,32.81
2017-05-27T06:11:06.847Z,32.65
2017-05-27T06:12:06.882Z,32.81
2017-05-27T06:13:06.983Z,32.81
2017-05-27T06:14:06.960Z,32.45
2017-05-27T06:15:06.692Z,33
2017-05-27T06:16:06.729Z,33.39
2017-05-27T06:17:21.690Z,33.68
2017-05-27T06:18:06.809Z,33.91
2017-05-27T06:19:06.844Z,33.88
2017-05-27T06:20:07.186Z,33.81
2017-05-27T06:21:07.225Z,33.12
2017-05-27T06:22:07.265Z,33.44
2017-05-27T06:23:07.302Z,33.45
2017-05-27T06:24:07.034Z,33.51
2017-05-27T06:26:06.808Z,33.93
2017-05-27T06:27:07.453Z,34.1
2017-05-27T06:28:22.125Z,34.85
2017-05-27T06:29:22.172Z,35.15
2017-05-27T06:30:07.271Z,35.29
2017-05-27T06:31:07.609Z,35.34
2017-05-27T06:32:22.268Z,35.55
2017-05-27T06:33:07.382Z,35.9
2017-05-27T06:34:07.726Z,36.05
2017-05-27T06:35:07.463Z,35.77
2017-05-27T06:36:07.805Z,35.26
2017-05-27T06:37:07.540Z,35.36
2017-05-27T06:38:07.892Z,35.44
2017-05-27T06:39:07.936Z,36
2017-05-27T06:40:07.656Z,36.47
2017-05-27T06:42:07.734Z,36.08
2017-05-27T06:43:08.077Z,36.03
2017-05-27T06:44:08.116Z,36.53
2017-05-27T06:45:08.153Z,36.72
2017-05-27T06:46:07.892Z,36.62
2017-05-27T06:47:08.232Z,36.6
2017-05-27T06:48:08.276Z,36.98
2017-05-27T06:49:08.314Z,36.95
2017-05-27T06:50:08.051Z,36.95
2017-05-27T06:51:08.394Z,36.72
2017-05-27T06:52:08.432Z,37.05
2017-05-27T06:53:08.168Z,36.85
2017-05-27T06:54:08.209Z,36.73
2017-05-27T06:55:08.300Z,36.95
2017-05-27T06:56:08.291Z,36.83
2017-05-27T06:57:08.329Z,36.94
2017-05-27T06:58:08.680Z,36.9
2017-05-27T06:59:08.719Z,36.53
2017-05-27T07:00:23.373Z,36.84
2017-05-27T07:01:08.793Z,37.07
2017-05-27T07:02:08.225Z,36.83
2017-05-27T07:03:08.572Z,36.34
2017-05-27T07:04:23.229Z,35.37
2017-05-27T07:05:08.647Z,35.18
2017-05-27T07:06:08.992Z,35.41
2017-05-27T07:07:09.032Z,35.72
2017-05-27T07:08:09.074Z,36.28
2017-05-27T07:09:09.110Z,36.34
2017-05-27T07:10:08.846Z,36.51
2017-05-27T07:11:09.191Z,35.92
2017-05-27T07:12:08.929Z,35.58
2017-05-27T07:13:09.271Z,35.28
2017-05-27T07:14:09.311Z,35.87
2017-05-27T07:15:23.971Z,35.97
2017-05-27T07:16:24.011Z,36.43
2017-05-27T07:17:09.125Z,36.47
2017-05-27T07:18:09.164Z,36.71
2017-05-27T07:19:09.205Z,35.82
2017-05-27T07:20:23.865Z,35.55
2017-05-27T07:21:09.590Z,35.77
2017-05-27T07:22:09.628Z,35.82
2017-05-27T07:23:09.670Z,35.84
2017-05-27T07:24:09.405Z,35.78
2017-05-27T07:25:09.442Z,35.81
2017-05-27T07:26:09.787Z,36.16
2017-05-27T07:27:09.826Z,35.81
2017-05-27T07:28:09.564Z,35.07
2017-05-27T07:30:09.645Z,34.78
2017-05-27T07:31:09.683Z,34.49
2017-05-27T07:32:09.724Z,34.43
2017-05-27T07:33:10.071Z,34.7
2017-05-27T07:34:09.802Z,35.04
2017-05-27T07:35:10.144Z,35.44
2017-05-27T07:36:24.802Z,35.31
2017-05-27T07:37:10.222Z,34.96
2017-05-27T07:39:09.997Z,35.58
2017-05-27T07:40:10.338Z,35.81
2017-05-27T07:44:10.494Z,37.05
2017-05-27T07:45:09.931Z,36.53
2017-05-27T07:46:10.576Z,35.85
2017-05-27T07:47:10.360Z,35.94
2017-05-27T07:48:25.273Z,35.66
2017-05-27T07:49:25.312Z,36.12
2017-05-27T07:50:10.732Z,36.31
2017-05-27T07:51:10.773Z,36.19
2017-05-27T07:52:25.432Z,35.85
2017-05-27T07:53:10.854Z,35.93
2017-05-27T07:54:10.283Z,36.19
2017-05-27T07:55:10.320Z,36.56
2017-05-27T07:56:10.968Z,36.23
2017-05-27T07:57:11.006Z,35.68
2017-05-27T07:58:11.044Z,35.81
2017-05-27T07:59:11.085Z,36.13
2017-05-27T08:00:11.124Z,36.05
2017-05-27T08:01:11.169Z,36.6
2017-05-27T08:02:10.903Z,37.36
2017-05-27T08:03:11.243Z,37.2
2017-05-27T08:04:11.280Z,36.59
2017-05-27T08:05:11.016Z,36.88
2017-05-27T08:06:11.363Z,37.2
2017-05-27T08:07:26.022Z,36.95
2017-05-27T08:08:11.187Z,36.56
2017-05-27T08:09:11.177Z,36.85
2017-05-27T08:10:11.516Z,37.05
2017-05-27T08:11:11.255Z,37.05
2017-05-27T08:12:11.660Z,36.71
2017-05-27T08:14:11.371Z,37.46
2017-05-27T08:16:11.751Z,37.12
2017-05-27T08:17:26.464Z,36.85
2017-05-27T08:18:11.531Z,36.72
2017-05-27T08:19:11.569Z,36.47
2017-05-27T08:20:11.607Z,35.87
2017-05-27T08:21:11.644Z,35.75
2017-05-27T08:22:11.684Z,36.29
2017-05-27T08:23:12.027Z,36.69
2017-05-27T08:24:11.764Z,36.56
2017-05-27T08:25:12.107Z,35.66
2017-05-27T08:26:11.537Z,35.8
2017-05-27T08:27:11.878Z,35.66
2017-05-27T08:28:12.221Z,35.71
2017-05-27T08:29:12.264Z,36.16
2017-05-27T08:30:12.676Z,36.07
2017-05-27T08:31:12.336Z,35.72
2017-05-27T08:32:12.073Z,35.74
2017-05-27T08:33:12.111Z,35.48
2017-05-27T08:34:26.771Z,35.55
2017-05-27T08:35:27.113Z,34.99
2017-05-27T08:36:12.226Z,34.65
2017-05-27T08:37:12.569Z,34.85
2017-05-27T08:38:12.607Z,35.16
2017-05-27T08:39:27.267Z,35.16
2017-05-27T08:40:12.684Z,35.53
2017-05-27T08:41:12.777Z,35.78
2017-05-27T08:42:12.759Z,36.09
2017-05-27T08:43:12.496Z,36.28
2017-05-27T08:44:12.838Z,36.62
2017-05-27T08:45:12.875Z,36.28
2017-05-27T08:46:12.911Z,36.08
2017-05-27T08:47:12.950Z,36.53
2017-05-27T08:48:13.001Z,36.51
2017-05-27T08:49:27.347Z,35.94
2017-05-27T08:50:13.065Z,35.75
2017-05-27T08:51:27.421Z,35.66
2017-05-27T08:52:12.837Z,35.87
2017-05-27T08:53:12.878Z,36.41
2017-05-27T08:54:12.914Z,36.32
2017-05-27T08:55:27.876Z,36.49
2017-05-27T08:56:13.307Z,36.91
2017-05-27T08:57:13.337Z,36.32
2017-05-27T08:58:13.369Z,34.87
2017-05-27T08:59:13.407Z,34.75
2017-05-27T09:00:13.444Z,35.33
2017-05-27T09:01:13.481Z,35.21
2017-05-27T09:02:13.223Z,35.62
2017-05-27T09:03:13.560Z,35.56
2017-05-27T09:04:13.597Z,35.82
2017-05-27T09:05:13.631Z,35.71
2017-05-27T09:06:13.670Z,35.6
2017-05-27T09:07:28.328Z,35.55
2017-05-27T09:08:13.444Z,35.06
2017-05-27T09:09:13.788Z,34.17
2017-05-27T09:10:13.855Z,33.86
2017-05-27T09:11:28.477Z,34.25
2017-05-27T09:12:13.594Z,34.21
2017-05-27T09:13:13.628Z,34.05
2017-05-27T09:14:13.666Z,34.49
2017-05-27T09:15:14.006Z,35.07
2017-05-27T09:16:14.094Z,35.44
2017-05-27T09:17:13.779Z,35.18
2017-05-27T09:18:14.119Z,35.21
2017-05-27T09:19:14.155Z,34.89
2017-05-27T09:20:14.191Z,34.91
2017-05-27T09:21:14.229Z,34.7
2017-05-27T09:22:14.263Z,35.07
2017-05-27T09:23:14.301Z,35.22
2017-05-27T09:24:14.387Z,35.45
2017-05-27T09:25:14.374Z,35.56
2017-05-27T09:26:14.411Z,35.97
2017-05-27T09:27:29.066Z,35.84
2017-05-27T09:28:14.487Z,35.68
2017-05-27T09:29:14.574Z,35.68
2017-05-27T09:30:14.557Z,35.81
2017-05-27T09:31:14.593Z,36.16
2017-05-27T09:32:14.632Z,36.43
2017-05-27T09:33:14.365Z,36.85
2017-05-27T09:34:14.716Z,36.62
2017-05-27T09:35:14.436Z,36.88
2017-05-27T09:37:14.814Z,37.17
2017-05-27T09:38:14.546Z,36.95
2017-05-27T09:39:29.506Z,36.56
2017-05-27T09:40:14.923Z,36.19
2017-05-27T09:41:14.959Z,36.08
2017-05-27T09:42:29.615Z,36.54
2017-05-27T09:43:15.031Z,35.58
2017-05-27T09:44:15.069Z,35.1
2017-05-27T09:45:15.106Z,34.91
2017-05-27T09:46:15.146Z,34.19
2017-05-27T09:49:15.249Z,33.9
2017-05-27T09:50:15.285Z,34.06
2017-05-27T09:51:15.320Z,34.31
2017-05-27T09:52:15.424Z,34.62
2017-05-27T09:53:15.391Z,34.99
2017-05-27T09:54:15.429Z,35.06
2017-05-27T09:55:30.084Z,34.85
2017-05-27T09:56:15.199Z,34.47
2017-05-27T09:57:14.935Z,34.1
2017-05-27T09:58:14.970Z,34.1
2017-05-27T09:59:15.003Z,34.02
2017-05-27T10:00:15.035Z,34.31
2017-05-27T10:01:15.078Z,34.22
2017-05-27T10:02:15.115Z,33.98
2017-05-27T10:03:15.142Z,34.08
2017-05-27T10:04:15.178Z,33.57
2017-05-27T10:05:15.214Z,33.47
2017-05-27T10:06:15.568Z,33.16
2017-05-27T10:08:15.328Z,33.47
2017-05-27T10:09:15.960Z,33.57
2017-05-27T10:10:15.697Z,34.27
2017-05-27T10:11:15.731Z,34.47
2017-05-27T10:12:16.125Z,34.35
2017-05-27T10:13:16.104Z,34.62
2017-05-27T10:14:30.453Z,34
2017-05-27T10:15:16.175Z,33.59
2017-05-27T10:16:16.207Z,33.47
2017-05-27T10:17:15.635Z,33.79
2017-05-27T10:18:15.974Z,33.78
2017-05-27T10:19:16.312Z,34.1
2017-05-27T10:20:16.348Z,34.39
2017-05-27T10:21:16.078Z,34.65
2017-05-27T10:22:16.416Z,34.59
2017-05-27T10:24:16.489Z,34.12
2017-05-27T10:25:30.839Z,33.69
2017-05-27T10:26:16.569Z,33.69
2017-05-27T10:27:16.289Z,33.32
2017-05-27T10:28:31.245Z,33.5
2017-05-27T10:29:16.661Z,33.19
2017-05-27T10:30:31.368Z,32.59
2017-05-27T10:31:16.732Z,32.37
2017-05-27T10:32:16.463Z,32.21
2017-05-27T10:33:16.800Z,31.99
2017-05-27T10:34:16.836Z,31.76
2017-05-27T10:35:16.869Z,31.29
2017-05-27T10:36:16.903Z,31.25
2017-05-27T10:37:16.991Z,31.09
2017-05-27T10:38:16.974Z,31.06
2017-05-27T10:40:17.044Z,30.34
2017-05-27T10:41:17.078Z,30.47
2017-05-27T10:42:31.732Z,30.13
2017-05-27T10:43:17.149Z,30.1
2017-05-27T10:44:17.181Z,30.01
2017-05-27T10:45:17.215Z,29.74
2017-05-27T10:46:31.916Z,29.57
2017-05-27T10:47:17.281Z,29.53
2017-05-27T10:48:17.013Z,29.33
2017-05-27T10:49:17.351Z,29.39
2017-05-27T10:50:17.387Z,29.28
2017-05-27T10:51:17.417Z,29.18
2017-05-27T10:52:17.451Z,29.24
2017-05-27T10:53:17.185Z,29.24
2017-05-27T10:54:17.518Z,29.45
2017-05-27T10:55:32.176Z,29.61
2017-05-27T10:56:17.595Z,29.79
2017-05-27T10:57:17.621Z,29.36
2017-05-27T10:58:17.659Z,29.37
2017-05-27T10:59:17.689Z,29.64
2017-05-27T11:00:17.722Z,29.41
2017-05-27T11:01:17.450Z,29.23
2017-05-27T11:02:32.408Z,29.11
2017-05-27T11:03:17.884Z,29.05
2017-05-27T11:04:17.304Z,29.28
2017-05-27T11:05:17.587Z,29.37
2017-05-27T11:06:17.921Z,29.46
2017-05-27T11:07:17.953Z,29.6
2017-05-27T11:08:17.985Z,29.49
2017-05-27T11:09:18.024Z,29.46
2017-05-27T11:10:18.055Z,29.27
2017-05-27T11:12:18.171Z,29.24
2017-05-27T11:14:32.804Z,28.71
2017-05-27T11:15:18.221Z,28.96
2017-05-27T11:16:17.951Z,29.3
2017-05-27T11:17:32.903Z,29.21
2017-05-27T11:18:18.015Z,29.16
2017-05-27T11:19:18.355Z,29.15
2017-05-27T11:20:18.081Z,29.16
2017-05-27T11:21:17.810Z,28.96
2017-05-27T11:22:18.146Z,29.16
2017-05-27T11:23:18.176Z,29.09
2017-05-27T11:24:18.511Z,29.28
2017-05-27T11:25:33.169Z,29.08
2017-05-27T11:26:18.272Z,29.04
2017-05-27T11:28:18.641Z,29.16
2017-05-27T11:29:18.372Z,29.31
2017-05-27T11:30:18.704Z,29.34
2017-05-27T11:31:18.439Z,29.37
2017-05-27T11:32:18.771Z,29.11
2017-05-27T11:33:18.500Z,28.56
2017-05-27T11:34:18.834Z,28.67
2017-05-27T11:35:18.564Z,28.88
2017-05-27T11:36:18.596Z,29
2017-05-27T11:37:18.631Z,29.05
2017-05-27T11:38:18.661Z,28.83
2017-05-27T11:39:18.387Z,28.66
2017-05-27T11:40:19.030Z,28.8
2017-05-27T11:41:18.756Z,28.81
2017-05-27T11:42:18.788Z,29.02
2017-05-27T11:43:19.124Z,29.04
2017-05-27T11:44:19.156Z,28.85
2017-05-27T11:45:19.190Z,28.73
2017-05-27T11:46:19.223Z,28.67
2017-05-27T11:47:19.253Z,28.71
2017-05-27T11:48:18.985Z,28.67
2017-05-27T11:49:33.935Z,28.67
2017-05-27T11:50:19.044Z,28.83
2017-05-27T11:51:19.076Z,29.06
2017-05-27T11:52:19.413Z,28.93
2017-05-27T11:53:19.445Z,28.49
2017-05-27T11:54:19.477Z,28.39
2017-05-27T11:55:19.506Z,28.46
2017-05-27T11:56:19.538Z,28.54
2017-05-27T11:58:19.603Z,28.81
2017-05-27T12:00:19.663Z,29.19
2017-05-27T12:01:19.396Z,29.33
2017-05-27T12:02:34.346Z,29.34
2017-05-27T12:03:19.758Z,29.26
2017-05-27T12:04:34.711Z,29.24
2017-05-27T12:05:34.444Z,29.15
2017-05-27T12:06:19.853Z,29.28
2017-05-27T12:07:19.580Z,29.12
2017-05-27T12:08:19.915Z,29.26
2017-05-27T12:09:19.341Z,29.27
2017-05-27T12:10:19.683Z,29.42
2017-05-27T12:11:19.717Z,29.33
2017-05-27T12:12:20.050Z,29.24
2017-05-27T12:13:20.073Z,29.19
2017-05-27T12:14:20.104Z,29.06
2017-05-27T12:15:20.137Z,28.98
2017-05-27T12:16:20.168Z,29.28
2017-05-27T12:17:34.516Z,29.57
2017-05-27T12:18:19.928Z,29.67
2017-05-27T12:19:19.959Z,29.48
2017-05-27T12:20:19.992Z,28.74
2017-05-27T12:21:34.944Z,28.8
2017-05-27T12:22:20.358Z,28.78
2017-05-27T12:23:20.395Z,29.02
2017-05-27T12:24:20.425Z,28.61
2017-05-27T12:25:20.451Z,28.44
2017-05-27T12:26:20.180Z,28.37
2017-05-27T12:27:19.908Z,28.34
2017-05-27T12:28:20.546Z,28.34
2017-05-27T12:29:20.578Z,28.54
2017-05-27T12:30:20.610Z,28.74
2017-05-27T12:31:20.338Z,28.81
2017-05-27T12:32:20.368Z,28.73
2017-05-27T12:33:20.703Z,28.54
2017-05-27T12:34:20.738Z,28.58
2017-05-27T12:35:20.767Z,28.17
2017-05-27T12:36:20.799Z,27.93
2017-05-27T12:37:35.448Z,28
2017-05-27T12:38:20.867Z,28.27
2017-05-27T12:39:20.892Z,28.62
2017-05-27T12:40:20.314Z,28.8
2017-05-27T12:41:20.649Z,28.76
2017-05-27T12:42:20.989Z,28.54
2017-05-27T12:43:21.016Z,28.52
2017-05-27T12:44:21.047Z,28.67
2017-05-27T12:45:20.778Z,28.62
2017-05-27T12:46:21.112Z,28.61
2017-05-27T12:47:21.141Z,28.56
2017-05-27T12:48:20.869Z,28.62
2017-05-27T12:49:21.202Z,28.59
2017-05-27T12:50:35.853Z,28.59
2017-05-27T12:51:21.272Z,28.66
2017-05-27T12:52:35.966Z,28.8
2017-05-27T12:53:21.328Z,28.62
2017-05-27T12:54:21.357Z,28.54
2017-05-27T12:55:21.407Z,28.43
2017-05-27T12:56:21.117Z,28.58
2017-05-27T12:57:20.851Z,28.64
2017-05-27T12:58:20.876Z,28.54
2017-05-27T12:59:20.923Z,28.67
2017-05-27T13:00:35.912Z,28.7
2017-05-27T13:01:20.971Z,28.76
2017-05-27T13:02:21.612Z,28.39
2017-05-27T13:03:36.259Z,28.17
2017-05-27T13:04:21.671Z,28.22
2017-05-27T13:05:36.320Z,28.43
2017-05-27T13:06:21.782Z,28.48
2017-05-27T13:07:21.460Z,28.46
2017-05-27T13:08:21.796Z,28.49
2017-05-27T13:09:21.522Z,28.4
2017-05-27T13:10:21.554Z,28.19
2017-05-27T13:11:21.887Z,28.27
2017-05-27T13:12:21.916Z,28.58
2017-05-27T13:13:21.351Z,28.71
2017-05-27T13:14:21.980Z,28.83
2017-05-27T13:15:21.712Z,28.8
2017-05-27T13:16:22.041Z,28.62
2017-05-27T13:18:21.800Z,28.66
2017-05-27T13:19:21.835Z,28.62
2017-05-27T13:20:36.784Z,28.51
2017-05-27T13:21:21.895Z,28.67
2017-05-27T13:22:21.924Z,28.54
2017-05-27T13:23:21.957Z,28.44
2017-05-27T13:24:36.908Z,28.51
2017-05-27T13:25:22.326Z,28.52
2017-05-27T13:26:22.349Z,28.48
2017-05-27T13:27:22.381Z,28.58
2017-05-27T13:28:21.806Z,28.62
2017-05-27T13:29:22.442Z,28.73
2017-05-27T13:30:22.476Z,28.73
2017-05-27T13:31:22.509Z,28.56
2017-05-27T13:32:22.233Z,28.44
2017-05-27T13:33:22.263Z,28.39